Hauptseite
METAR-TAF:

METAR-TAF

Flughäfen :

Exeter International Airport

Exeter, England

Breite: 50-44N, Länge: 003-25W, Höhe: 30 m

Beobachtung

Neuester Wetterbericht von vor 31 Minuten, um 05:50 UTC
Wind 1 kt aus unterschiedlichen Richtungen
Temperatur 2°C
Luftfeuchtigkeit 100%
Luftdruck 1009 hPa
Sichtweite 10 km oder mehr
Leicht bewölkt in der Höhe von 2000 ft
Aufgelockert bewölkt in der Höhe von 4000 ft

METAR: EGTE 170550Z VRB01KT 9999 FEW020 SCT040 02/02 Q1009

Zeit: 06:21 (06:21 UTC)

Prognose

Neuester Wetterbericht von vor 6 Stunden und 57 Minuten, um 23:24 UTC
Gültige Prognose vom 17 um 00 UTC bis 17 um 04 UTC
Wind 2 kt aus unterschiedlichen Richtungen
Sichtweite 10 km oder mehr
Aufgelockert bewölkt in der Höhe von 4000 ft
Zeitweise
vom 17 um 00 UTC bis 17 um 04 UTC
Sichtweite: 6000 m

TAF: EGTE 162324Z 1700/1704 VRB02KT 9999 SCT040 TEMPO 1700/1704 6000

Wetterbeobachtungen und Prognosen von mehr als 4000 Flughäfen (METAR und TAF Bericht).

Die verfügbaren Stationen werden durch gelbe und rote Markierungen auf der Karte dargestellt.

Führen Sie die Maus auf sie, um den Namen der Station zu sehen.

Darauf klicken, um die Beobachtung von Wetterbeobachtungen und Prognosen zu sehen.

Um die Karte zu ändern : klicken Sie auf den grünen Tasten mit einem schwarzen Kreuz Zum Vergrößern, auf den grünen Button mit einem Gedankenstrich zu verkleinern, oder auf die grünen Pfeile für benachbarte Karten.


METAR-TAF: